Weather at Scalaria Airchallenge Water Landing Area

Public forecast

Using degrees Celsius for public forecast. Weather courtesy of forecast.io.

Closest aviation weather report (METAR) to Scalaria Airchallenge Water Landing Area

Closest report is Salzburg Airport, 18.1 nm (33.5 km) WNW. Retrieved 2020/10/28 16:20 UTC (18 minutes ago):

LOWS 281620Z 16007KT 130V190 9999 FEW050 BKN060 10/05 Q1017 NOSIG

Closest aviation forecast (TAF) to Scalaria Airchallenge Water Landing Area

Closest forecast is Salzburg Airport, 18.1 nm (33.5 km) WNW. Retrieved 2020/10/28 12:22 UTC (4 hours ago):

TAF LOWS 281115Z 2812/2912 15008KT 9999 FEW050 BKN070 TX12/2813Z TN07/2821Z TEMPO 2812/2816 33004KT BECMG 2904/2906 -RA TEMPO 2906/2912 6000 RA SCT012 BKN020 TEMPO 2909/2912 26010KT